createdAt,value
2022-08-10T00:00:33.307Z,0.00
2022-08-10T00:01:32.557Z,0.00
2022-08-10T00:02:32.717Z,0.00
2022-08-10T00:03:32.414Z,0.00
2022-08-10T00:04:32.403Z,0.00
2022-08-10T00:05:43.718Z,0.00
2022-08-10T00:06:32.383Z,0.10
2022-08-10T00:07:32.361Z,0.00
2022-08-10T00:08:32.352Z,0.00
2022-08-10T00:09:32.334Z,0.00
2022-08-10T00:10:32.322Z,0.00
2022-08-10T00:11:32.307Z,0.00
2022-08-10T00:12:53.900Z,0.00
2022-08-10T00:13:32.282Z,0.00
2022-08-10T00:14:32.270Z,0.00
2022-08-10T00:15:51.852Z,0.00
2022-08-10T00:16:32.243Z,0.00
2022-08-10T00:17:32.228Z,0.00
2022-08-10T00:18:35.756Z,0.00
2022-08-10T00:20:03.595Z,0.00
2022-08-10T00:20:32.190Z,0.00
2022-08-10T00:21:32.184Z,0.00
2022-08-10T00:22:32.402Z,0.00
2022-08-10T00:23:32.150Z,0.00
2022-08-10T00:24:32.138Z,0.00
2022-08-10T00:25:32.125Z,0.00
2022-08-10T00:27:52.339Z,0.00
2022-08-10T00:27:58.806Z,0.00
2022-08-10T00:28:34.086Z,0.00
2022-08-10T00:29:32.074Z,0.00
2022-08-10T00:30:32.059Z,0.00
2022-08-10T00:31:32.048Z,0.00
2022-08-10T00:32:32.072Z,0.00
2022-08-10T00:33:32.022Z,0.00
2022-08-10T00:34:32.007Z,0.10
2022-08-10T00:35:31.993Z,0.00
2022-08-10T00:36:31.985Z,0.00
2022-08-10T00:37:31.966Z,0.00
2022-08-10T00:38:31.954Z,0.00
2022-08-10T00:39:36.025Z,0.00
2022-08-10T00:40:35.431Z,0.00
2022-08-10T00:41:33.913Z,0.00
2022-08-10T00:42:32.027Z,0.00
2022-08-10T00:43:31.888Z,0.10
2022-08-10T00:44:31.874Z,0.00
2022-08-10T00:45:31.860Z,0.00
2022-08-10T00:46:31.852Z,0.00
2022-08-10T00:47:37.074Z,0.00
2022-08-10T00:48:31.821Z,0.00
2022-08-10T00:49:31.807Z,0.00
2022-08-10T00:50:31.795Z,0.00
2022-08-10T00:51:44.369Z,0.00
2022-08-10T00:52:31.917Z,0.00
2022-08-10T00:53:31.753Z,0.00
2022-08-10T00:54:31.741Z,0.00
2022-08-10T00:55:31.727Z,0.00
2022-08-10T00:57:10.010Z,0.00
2022-08-10T00:57:31.701Z,0.00
2022-08-10T00:58:31.689Z,0.00
2022-08-10T00:59:31.680Z,0.00
2022-08-10T01:00:31.661Z,0.00
2022-08-10T01:02:11.072Z,0.00
2022-08-10T01:02:31.782Z,0.00
2022-08-10T01:04:36.174Z,0.00
2022-08-10T01:04:57.423Z,0.00
2022-08-10T01:05:31.593Z,0.00
2022-08-10T01:06:31.582Z,0.00
2022-08-10T01:07:31.567Z,0.00
2022-08-10T01:08:31.557Z,0.00
2022-08-10T01:09:31.546Z,0.00
2022-08-10T01:10:31.534Z,0.00
2022-08-10T01:12:38.996Z,0.00
2022-08-10T01:12:47.104Z,0.00
2022-08-10T01:13:31.488Z,0.00
2022-08-10T01:14:31.475Z,0.00
2022-08-10T01:15:31.458Z,0.00
2022-08-10T01:16:31.447Z,0.00
2022-08-10T01:17:50.867Z,0.00
2022-08-10T01:18:33.772Z,0.00
2022-08-10T01:19:31.405Z,0.00
2022-08-10T01:20:31.467Z,0.00
2022-08-10T01:21:31.383Z,0.00
2022-08-10T01:22:31.439Z,0.00
2022-08-10T01:23:31.351Z,0.00
2022-08-10T01:24:31.340Z,0.00
2022-08-10T01:25:31.324Z,0.10
2022-08-10T01:26:32.043Z,0.00
2022-08-10T01:27:31.298Z,0.00
2022-08-10T01:28:31.285Z,0.00
2022-08-10T01:29:31.269Z,0.00
2022-08-10T01:30:31.258Z,0.00
2022-08-10T01:31:31.244Z,0.00
2022-08-10T01:32:31.231Z,0.00
2022-08-10T01:33:31.741Z,0.00
2022-08-10T01:34:31.204Z,0.00
2022-08-10T01:35:31.189Z,0.00
2022-08-10T01:36:31.936Z,0.00
2022-08-10T01:37:31.162Z,0.00
2022-08-10T01:38:31.155Z,0.10
2022-08-10T01:39:31.200Z,0.00
2022-08-10T01:40:31.123Z,0.00
2022-08-10T01:41:45.891Z,0.00
2022-08-10T01:42:31.097Z,0.00
2022-08-10T01:43:31.082Z,0.00
2022-08-10T01:44:31.070Z,0.00
2022-08-10T01:45:45.172Z,0.00
2022-08-10T01:46:31.042Z,0.00
2022-08-10T01:47:31.029Z,0.10
2022-08-10T01:48:31.036Z,0.00
2022-08-10T01:49:31.005Z,0.00
2022-08-10T01:50:30.991Z,0.00
2022-08-10T01:51:30.973Z,0.00
2022-08-10T01:52:30.962Z,0.00
2022-08-10T01:53:41.340Z,0.00
2022-08-10T01:54:30.939Z,0.00
2022-08-10T01:55:30.920Z,0.00
2022-08-10T01:56:30.911Z,0.00
2022-08-10T01:57:30.897Z,0.00
2022-08-10T01:58:30.883Z,0.00
2022-08-10T01:59:30.868Z,0.00
2022-08-10T02:00:30.856Z,0.00
2022-08-10T02:01:30.940Z,0.00
2022-08-10T02:02:30.841Z,0.00
2022-08-10T02:03:30.816Z,0.00
2022-08-10T02:04:30.803Z,0.00
2022-08-10T02:05:30.788Z,0.00
2022-08-10T02:06:30.777Z,0.00
2022-08-10T02:07:30.762Z,0.00
2022-08-10T02:08:30.762Z,0.00
2022-08-10T02:09:30.736Z,0.10
2022-08-10T02:10:30.726Z,0.10
2022-08-10T02:11:30.709Z,0.00
2022-08-10T02:12:30.697Z,0.00
2022-08-10T02:13:30.683Z,0.00
2022-08-10T02:14:33.956Z,0.00
2022-08-10T02:15:30.656Z,0.00
2022-08-10T02:16:30.643Z,0.00
2022-08-10T02:17:57.966Z,0.00
2022-08-10T02:18:30.616Z,0.00
2022-08-10T02:19:30.604Z,0.00
2022-08-10T02:20:31.627Z,0.00
2022-08-10T02:21:30.579Z,0.00
2022-08-10T02:22:35.924Z,0.00
2022-08-10T02:23:30.554Z,0.00
2022-08-10T02:24:30.538Z,0.10
2022-08-10T02:25:40.960Z,0.00
2022-08-10T02:26:30.511Z,0.00
2022-08-10T02:27:30.499Z,0.00
2022-08-10T02:28:31.271Z,0.00
2022-08-10T02:29:30.473Z,0.00
2022-08-10T02:30:30.469Z,0.10
2022-08-10T02:31:30.446Z,0.00
2022-08-10T02:33:30.425Z,0.00
2022-08-10T02:34:30.407Z,0.00
2022-08-10T02:35:38.400Z,0.00
2022-08-10T02:36:30.380Z,0.00
2022-08-10T02:37:30.368Z,0.00
2022-08-10T02:38:59.863Z,0.00
2022-08-10T02:39:30.371Z,0.00
2022-08-10T02:45:15.316Z,0.00
2022-08-10T02:45:15.616Z,0.00
2022-08-10T02:45:19.050Z,0.00
2022-08-10T02:45:24.705Z,0.00
2022-08-10T02:45:24.707Z,0.00
2022-08-10T02:45:31.663Z,0.00
2022-08-10T02:46:30.252Z,0.00
2022-08-10T02:47:30.234Z,0.00
2022-08-10T02:48:30.221Z,0.00
2022-08-10T02:49:30.209Z,0.00
2022-08-10T02:50:30.196Z,0.00
2022-08-10T02:52:07.330Z,0.00
2022-08-10T02:52:30.170Z,0.10
2022-08-10T02:53:55.359Z,0.00
2022-08-10T02:54:30.143Z,0.00
2022-08-10T02:55:32.604Z,0.00
2022-08-10T02:56:30.116Z,0.00
2022-08-10T02:57:30.104Z,0.00
2022-08-10T02:58:30.090Z,0.00
2022-08-10T02:59:40.014Z,0.00
2022-08-10T03:00:30.065Z,0.00
2022-08-10T03:01:30.106Z,0.00
2022-08-10T03:02:30.038Z,0.00
2022-08-10T03:03:30.029Z,0.00
2022-08-10T03:04:56.134Z,0.00
2022-08-10T03:05:30.001Z,0.00
2022-08-10T03:06:29.990Z,0.00
2022-08-10T03:07:43.281Z,0.10
2022-08-10T03:08:29.959Z,0.10
2022-08-10T03:09:29.950Z,0.10
2022-08-10T03:10:29.934Z,0.00
2022-08-10T03:12:36.177Z,0.00
2022-08-10T03:12:38.481Z,0.00
2022-08-10T03:13:29.897Z,0.00
2022-08-10T03:14:29.883Z,0.00
2022-08-10T03:15:29.878Z,0.00
2022-08-10T03:16:33.236Z,0.00
2022-08-10T03:17:29.851Z,0.00
2022-08-10T03:18:29.831Z,0.00
2022-08-10T03:20:34.367Z,0.00
2022-08-10T03:20:35.210Z,0.00
2022-08-10T03:21:31.794Z,0.00
2022-08-10T03:22:29.779Z,0.00
2022-08-10T03:23:29.768Z,0.00
2022-08-10T03:24:33.231Z,0.00
2022-08-10T03:25:29.742Z,0.00
2022-08-10T03:26:29.728Z,0.00
2022-08-10T03:27:29.719Z,0.00
2022-08-10T03:28:29.702Z,0.00
2022-08-10T03:29:29.691Z,0.00
2022-08-10T03:30:33.230Z,0.00
2022-08-10T03:31:29.690Z,0.00
2022-08-10T03:32:29.651Z,0.00
2022-08-10T03:33:29.642Z,0.00
2022-08-10T03:34:33.336Z,0.00
2022-08-10T03:35:29.614Z,0.00
2022-08-10T03:36:44.089Z,0.00
2022-08-10T03:37:29.588Z,0.00
2022-08-10T03:38:29.574Z,0.00
2022-08-10T03:39:29.651Z,0.00
2022-08-10T03:40:44.919Z,0.10
2022-08-10T03:41:29.752Z,0.00
2022-08-10T03:42:29.523Z,0.00
2022-08-10T03:43:29.509Z,0.10
2022-08-10T03:44:29.496Z,0.00
2022-08-10T03:45:29.484Z,0.00
2022-08-10T03:46:29.469Z,0.00
2022-08-10T03:47:29.458Z,0.00
2022-08-10T03:48:32.173Z,0.00
2022-08-10T03:49:29.432Z,0.00
2022-08-10T03:50:50.997Z,0.00
2022-08-10T03:51:29.405Z,0.00
2022-08-10T03:52:29.391Z,0.00
2022-08-10T03:54:05.590Z,0.00
2022-08-10T03:54:31.365Z,0.00
2022-08-10T03:56:26.935Z,0.00
2022-08-10T03:56:32.313Z,0.00
2022-08-10T03:57:29.329Z,0.10
2022-08-10T03:58:29.318Z,0.10
2022-08-10T03:59:29.303Z,0.10
2022-08-10T04:00:29.288Z,0.00
2022-08-10T04:02:41.663Z,0.00
2022-08-10T04:02:43.557Z,0.00
2022-08-10T04:03:29.397Z,0.40
2022-08-10T04:04:29.238Z,0.00
2022-08-10T04:05:38.861Z,0.00
2022-08-10T04:06:29.212Z,0.00
2022-08-10T04:07:29.200Z,0.00
2022-08-10T04:08:29.185Z,0.00
2022-08-10T04:09:42.812Z,0.00
2022-08-10T04:10:31.161Z,0.00
2022-08-10T04:11:29.147Z,0.00
2022-08-10T04:12:29.133Z,0.00
2022-08-10T04:13:29.122Z,0.20
2022-08-10T04:14:38.136Z,0.20
2022-08-10T04:15:29.097Z,0.00
2022-08-10T04:16:29.081Z,0.00
2022-08-10T04:18:04.013Z,0.00
2022-08-10T04:18:29.056Z,0.00
2022-08-10T04:19:29.044Z,0.00
2022-08-10T04:20:29.976Z,0.00
2022-08-10T04:21:29.019Z,0.00
2022-08-10T04:22:29.006Z,0.00
2022-08-10T04:23:28.993Z,0.00
2022-08-10T04:24:33.080Z,2.20
2022-08-10T04:25:28.970Z,0.20
2022-08-10T04:26:28.954Z,0.20
2022-08-10T04:27:28.943Z,0.20
2022-08-10T04:28:28.929Z,0.20
2022-08-10T04:29:28.918Z,0.20
2022-08-10T04:30:28.903Z,0.20
2022-08-10T04:31:28.890Z,0.20
2022-08-10T04:32:28.875Z,0.20
2022-08-10T04:33:28.865Z,0.20
2022-08-10T04:34:28.849Z,0.20
2022-08-10T04:35:28.843Z,3.20
2022-08-10T04:36:28.826Z,3.09
2022-08-10T04:37:28.813Z,3.40
2022-08-10T04:38:28.799Z,3.20
2022-08-10T04:39:28.899Z,3.20
2022-08-10T04:40:30.916Z,2.90
2022-08-10T04:41:28.761Z,2.79
2022-08-10T04:42:28.752Z,2.70
2022-08-10T04:43:28.736Z,2.79
2022-08-10T04:44:28.721Z,3.09
2022-08-10T04:45:50.422Z,2.90
2022-08-10T04:46:55.810Z,2.70
2022-08-10T04:47:57.613Z,2.59
2022-08-10T04:48:40.551Z,2.50
2022-08-10T04:49:55.653Z,2.29
2022-08-10T04:50:28.645Z,2.50
2022-08-10T04:51:28.632Z,2.50
2022-08-10T04:52:28.619Z,2.20
2022-08-10T04:53:28.606Z,2.20
2022-08-10T04:54:29.901Z,2.40
2022-08-10T04:55:28.579Z,2.09
2022-08-10T04:56:31.221Z,2.50
2022-08-10T04:57:28.553Z,2.29
2022-08-10T04:58:28.539Z,2.70
2022-08-10T04:59:28.527Z,2.09
2022-08-10T05:00:28.513Z,2.40
2022-08-10T05:02:13.453Z,2.09
2022-08-10T05:02:32.192Z,2.09
2022-08-10T05:03:28.475Z,1.50
2022-08-10T05:04:38.627Z,2.09
2022-08-10T05:05:30.457Z,2.00
2022-08-10T05:06:28.434Z,2.00
2022-08-10T05:07:28.421Z,2.20
2022-08-10T05:08:28.407Z,1.70
2022-08-10T05:09:28.397Z,1.90
2022-08-10T05:10:28.382Z,1.70
2022-08-10T05:11:28.370Z,1.70
2022-08-10T05:12:28.356Z,1.90
2022-08-10T05:13:28.344Z,1.50
2022-08-10T05:14:28.329Z,1.50
2022-08-10T05:15:28.319Z,1.29
2022-08-10T05:16:31.977Z,1.29
2022-08-10T05:17:28.289Z,1.20
2022-08-10T05:18:28.275Z,1.20
2022-08-10T05:20:03.607Z,1.20
2022-08-10T05:20:28.249Z,1.10
2022-08-10T05:22:03.955Z,1.29
2022-08-10T05:22:28.220Z,1.20
2022-08-10T05:23:28.208Z,1.20
2022-08-10T05:24:28.201Z,1.10
2022-08-10T05:25:28.181Z,1.20
2022-08-10T05:26:28.167Z,1.10
2022-08-10T05:27:28.155Z,1.00
2022-08-10T05:28:30.197Z,1.10
2022-08-10T05:29:28.128Z,1.00
2022-08-10T05:30:28.116Z,1.00
2022-08-10T05:31:28.101Z,0.80
2022-08-10T05:32:28.088Z,0.80
2022-08-10T05:33:28.076Z,0.80
2022-08-10T05:34:28.078Z,0.70
2022-08-10T05:35:28.060Z,0.70
2022-08-10T05:36:28.033Z,0.70
2022-08-10T05:38:10.375Z,0.60
2022-08-10T05:38:28.007Z,0.60
2022-08-10T05:39:30.594Z,0.60
2022-08-10T05:40:27.981Z,0.60
2022-08-10T05:41:27.969Z,0.50
2022-08-10T05:42:28.005Z,0.60
2022-08-10T05:43:27.944Z,0.70
2022-08-10T05:44:27.927Z,0.60
2022-08-10T05:45:27.917Z,0.50
2022-08-10T05:46:27.902Z,0.60
2022-08-10T05:47:27.891Z,0.60
2022-08-10T05:48:56.405Z,0.60
2022-08-10T05:49:27.867Z,0.60
2022-08-10T05:50:27.854Z,0.70
2022-08-10T05:51:27.839Z,0.80
2022-08-10T05:54:01.479Z,0.70
2022-08-10T05:54:27.797Z,0.80
2022-08-10T05:55:27.788Z,0.80
2022-08-10T05:56:27.772Z,0.80
2022-08-10T05:57:27.759Z,0.90
2022-08-10T05:58:27.747Z,0.80
2022-08-10T06:00:29.528Z,1.00
2022-08-10T06:00:37.272Z,1.00
2022-08-10T06:01:27.729Z,1.20
2022-08-10T06:02:34.074Z,1.29
2022-08-10T06:03:29.684Z,1.60
2022-08-10T06:04:27.667Z,1.50
2022-08-10T06:05:27.656Z,1.70
2022-08-10T06:06:27.641Z,1.90
2022-08-10T06:07:27.630Z,1.79
2022-08-10T06:08:27.618Z,2.09
2022-08-10T06:09:27.606Z,1.79
2022-08-10T06:10:31.530Z,2.00
2022-08-10T06:12:24.048Z,2.20
2022-08-10T06:12:30.318Z,2.09
2022-08-10T06:13:30.931Z,1.70
2022-08-10T06:14:28.571Z,2.29
2022-08-10T06:15:51.911Z,2.29
2022-08-10T06:16:27.515Z,2.00
2022-08-10T06:17:27.501Z,2.09
2022-08-10T06:18:27.487Z,2.90
2022-08-10T06:19:27.475Z,2.90
2022-08-10T06:20:27.462Z,2.90
2022-08-10T06:21:27.450Z,3.09
2022-08-10T06:22:27.506Z,2.79
2022-08-10T06:23:27.425Z,3.09
2022-08-10T06:24:30.342Z,3.00
2022-08-10T06:26:12.119Z,2.90
2022-08-10T06:26:27.387Z,2.79
2022-08-10T06:27:34.231Z,2.90
2022-08-10T06:28:27.361Z,2.70
2022-08-10T06:29:30.050Z,2.70
2022-08-10T06:30:27.335Z,2.59
2022-08-10T06:31:27.323Z,2.70
2022-08-10T06:32:27.407Z,2.59
2022-08-10T06:34:27.287Z,2.79
2022-08-10T06:35:27.270Z,2.40
2022-08-10T06:36:27.264Z,2.29
2022-08-10T06:37:27.247Z,2.90
2022-08-10T06:38:27.233Z,2.70
2022-08-10T06:39:34.139Z,3.09
2022-08-10T06:40:29.234Z,3.09
2022-08-10T06:42:15.142Z,3.09
2022-08-10T06:42:27.185Z,3.29
2022-08-10T06:43:27.170Z,3.00
2022-08-10T06:44:27.159Z,3.50
2022-08-10T06:45:27.148Z,3.50
2022-08-10T06:46:27.136Z,3.09
2022-08-10T06:47:27.122Z,3.50
2022-08-10T06:48:27.110Z,3.70
2022-08-10T06:49:27.097Z,3.59
2022-08-10T06:50:45.498Z,3.29
2022-08-10T06:51:27.075Z,3.00
2022-08-10T06:52:27.064Z,3.79
2022-08-10T06:53:52.836Z,3.40
2022-08-10T06:54:27.035Z,3.00
2022-08-10T06:55:27.318Z,3.29
2022-08-10T06:56:36.636Z,3.29
2022-08-10T06:57:26.995Z,3.79
2022-08-10T06:58:27.267Z,4.00
2022-08-10T06:59:26.970Z,4.19
2022-08-10T07:00:33.359Z,3.79
2022-08-10T07:01:26.986Z,3.70
2022-08-10T07:02:27.015Z,3.90
2022-08-10T07:03:26.918Z,4.00
2022-08-10T07:04:32.207Z,3.79
2022-08-10T07:05:26.894Z,3.79
2022-08-10T07:06:26.881Z,3.90
2022-08-10T07:07:26.865Z,3.79
2022-08-10T07:08:26.857Z,3.90
2022-08-10T07:09:26.841Z,4.09
2022-08-10T07:10:46.001Z,4.00
2022-08-10T07:11:26.817Z,4.09
2022-08-10T07:12:26.835Z,4.09
2022-08-10T07:14:15.317Z,4.19
2022-08-10T07:14:26.779Z,4.00
2022-08-10T07:16:00.354Z,3.79
2022-08-10T07:16:26.757Z,3.59
2022-08-10T07:17:26.745Z,4.09
2022-08-10T07:18:26.731Z,3.90
2022-08-10T07:19:26.719Z,3.70
2022-08-10T07:20:26.707Z,4.19
2022-08-10T07:21:26.692Z,3.90
2022-08-10T07:23:22.733Z,3.79
2022-08-10T07:23:57.559Z,3.90
2022-08-10T07:24:26.658Z,3.79
2022-08-10T07:25:26.645Z,3.79
2022-08-10T07:26:26.633Z,3.79
2022-08-10T07:27:26.622Z,3.50
2022-08-10T07:28:26.607Z,4.00
2022-08-10T07:29:53.568Z,3.79
2022-08-10T07:30:26.581Z,3.59
2022-08-10T07:31:54.419Z,3.70
2022-08-10T07:32:28.556Z,3.70
2022-08-10T07:33:26.544Z,3.50
2022-08-10T07:34:29.656Z,3.50
2022-08-10T07:35:26.523Z,3.50
2022-08-10T07:36:26.506Z,3.40
2022-08-10T07:37:26.493Z,3.79
2022-08-10T07:38:26.483Z,3.79
2022-08-10T07:39:58.154Z,3.70
2022-08-10T07:40:28.552Z,3.50
2022-08-10T07:41:26.445Z,3.70
2022-08-10T07:42:26.540Z,4.00
2022-08-10T07:43:26.482Z,3.90
2022-08-10T07:44:26.410Z,3.70
2022-08-10T07:45:26.395Z,3.79
2022-08-10T07:46:26.386Z,4.00
2022-08-10T07:47:52.644Z,3.79
2022-08-10T07:48:26.361Z,4.00
2022-08-10T07:49:26.348Z,3.59
2022-08-10T07:50:26.338Z,3.90
2022-08-10T07:51:26.323Z,4.19
2022-08-10T07:52:26.329Z,4.09
2022-08-10T07:53:26.303Z,4.09
2022-08-10T07:54:26.299Z,4.19
2022-08-10T07:56:04.596Z,4.19
2022-08-10T07:56:47.245Z,4.19
2022-08-10T07:57:30.788Z,3.79
2022-08-10T07:58:26.241Z,3.90
2022-08-10T07:59:26.228Z,4.30
2022-08-10T08:00:26.216Z,4.30
2022-08-10T08:01:26.222Z,4.00
2022-08-10T08:02:26.333Z,4.00
2022-08-10T08:03:26.178Z,4.00
2022-08-10T08:04:26.168Z,3.79
2022-08-10T08:05:54.926Z,4.09
2022-08-10T08:06:28.143Z,3.79
2022-08-10T08:07:26.129Z,3.90
2022-08-10T08:08:26.120Z,3.90
2022-08-10T08:09:26.108Z,4.09
2022-08-10T08:10:26.097Z,3.90
2022-08-10T08:11:26.672Z,3.79
2022-08-10T08:12:26.152Z,4.00
2022-08-10T08:13:26.061Z,3.90
2022-08-10T08:14:26.052Z,3.90
2022-08-10T08:16:21.546Z,4.00
2022-08-10T08:16:26.036Z,4.00
2022-08-10T08:17:36.265Z,4.00
2022-08-10T08:18:26.006Z,4.00
2022-08-10T08:19:27.852Z,3.90
2022-08-10T08:20:25.985Z,3.79
2022-08-10T08:24:06.695Z,4.00
2022-08-10T08:24:07.659Z,3.79
2022-08-10T08:24:14.653Z,3.70
2022-08-10T08:24:30.858Z,3.70
2022-08-10T08:25:25.925Z,4.00
2022-08-10T08:26:25.914Z,3.90
2022-08-10T08:27:25.903Z,3.59
2022-08-10T08:28:25.891Z,4.09
2022-08-10T08:29:25.876Z,3.79
2022-08-10T08:30:26.829Z,3.90
2022-08-10T08:31:25.851Z,3.90
2022-08-10T08:32:25.839Z,3.79
2022-08-10T08:33:41.995Z,3.90
2022-08-10T08:34:27.813Z,3.79
2022-08-10T08:35:25.799Z,4.19
2022-08-10T08:36:25.789Z,4.09
2022-08-10T08:38:29.732Z,4.00
2022-08-10T08:38:33.027Z,4.09
2022-08-10T08:39:25.790Z,4.00
2022-08-10T08:40:25.739Z,4.19
2022-08-10T08:41:25.729Z,3.90
2022-08-10T08:42:25.714Z,4.30
2022-08-10T08:43:29.786Z,4.30
2022-08-10T08:44:25.690Z,4.19
2022-08-10T08:45:25.683Z,4.50
2022-08-10T08:46:25.665Z,4.30
2022-08-10T08:48:02.944Z,4.50
2022-08-10T08:48:27.641Z,4.69
2022-08-10T08:50:08.359Z,4.40
2022-08-10T08:50:25.618Z,4.40
2022-08-10T08:52:09.442Z,4.40
2022-08-10T08:52:25.596Z,4.50
2022-08-10T08:53:25.580Z,4.50
2022-08-10T08:54:25.571Z,4.90
2022-08-10T08:56:03.574Z,4.80
2022-08-10T08:56:27.553Z,5.00
2022-08-10T08:57:50.433Z,5.30
2022-08-10T08:58:25.525Z,5.19
2022-08-10T08:59:25.514Z,5.19
2022-08-10T09:00:25.502Z,5.19
2022-08-10T09:01:38.282Z,5.09
2022-08-10T09:02:25.482Z,5.19
2022-08-10T09:03:28.314Z,5.19
2022-08-10T09:04:25.456Z,4.90
2022-08-10T09:05:26.030Z,5.19
2022-08-10T09:06:25.433Z,5.00
2022-08-10T09:08:00.592Z,5.40
2022-08-10T09:08:25.409Z,5.30
2022-08-10T09:09:25.397Z,5.40
2022-08-10T09:10:25.386Z,5.30
2022-08-10T09:11:25.374Z,5.50
2022-08-10T09:12:25.365Z,5.40
2022-08-10T09:13:25.350Z,5.30
2022-08-10T09:14:25.866Z,5.50
2022-08-10T09:15:40.523Z,5.50
2022-08-10T09:16:25.317Z,5.40
2022-08-10T09:17:25.305Z,5.40
2022-08-10T09:18:25.307Z,5.69
2022-08-10T09:19:34.986Z,5.40
2022-08-10T09:20:27.272Z,5.19
2022-08-10T09:21:25.259Z,5.30
2022-08-10T09:22:25.249Z,5.40
2022-08-10T09:24:01.694Z,5.30
2022-08-10T09:24:25.225Z,4.90
2022-08-10T09:25:25.212Z,5.19
2022-08-10T09:26:25.202Z,5.40
2022-08-10T09:27:25.189Z,5.00
2022-08-10T09:28:26.472Z,5.19
2022-08-10T09:29:25.167Z,5.09
2022-08-10T09:30:28.384Z,5.09
2022-08-10T09:31:26.135Z,5.09
2022-08-10T09:36:15.599Z,5.09
2022-08-10T09:36:23.161Z,5.09
2022-08-10T09:36:23.689Z,5.30
2022-08-10T09:36:26.172Z,5.19
2022-08-10T09:36:31.999Z,5.30
2022-08-10T09:37:40.060Z,5.19
2022-08-10T09:38:25.064Z,5.19
2022-08-10T09:40:12.495Z,5.09
2022-08-10T09:40:59.662Z,5.19
2022-08-10T09:41:25.057Z,5.09
2022-08-10T09:42:25.022Z,5.09
2022-08-10T09:43:26.568Z,5.19
2022-08-10T09:44:24.996Z,5.19
2022-08-10T09:45:24.984Z,5.30
2022-08-10T09:46:27.468Z,5.19
2022-08-10T09:48:00.751Z,5.40
2022-08-10T09:48:24.952Z,5.19
2022-08-10T09:49:52.990Z,5.40
2022-08-10T09:50:24.926Z,5.30
2022-08-10T09:52:24.904Z,5.30
2022-08-10T09:53:24.892Z,5.30
2022-08-10T09:54:24.881Z,5.40
2022-08-10T09:55:24.869Z,5.40
2022-08-10T09:56:28.535Z,5.40
2022-08-10T09:57:44.098Z,5.30
2022-08-10T09:58:24.840Z,5.50
2022-08-10T09:59:29.309Z,5.59
2022-08-10T10:00:24.818Z,5.30
2022-08-10T10:02:02.868Z,5.50
2022-08-10T10:02:24.799Z,5.50
2022-08-10T10:03:26.190Z,5.50
2022-08-10T10:04:24.775Z,5.50
2022-08-10T10:05:24.777Z,5.50
2022-08-10T10:06:24.753Z,5.50
2022-08-10T10:07:24.740Z,5.80
2022-08-10T10:08:24.731Z,5.80
2022-08-10T10:09:26.804Z,5.50
2022-08-10T10:10:24.712Z,5.69
2022-08-10T10:11:24.724Z,5.59
2022-08-10T10:12:24.701Z,5.69
2022-08-10T10:13:41.718Z,6.00
2022-08-10T10:14:24.668Z,5.80
2022-08-10T10:15:25.869Z,6.09
2022-08-10T10:16:24.648Z,5.69
2022-08-10T10:17:24.636Z,5.80
2022-08-10T10:18:24.626Z,5.80
2022-08-10T10:19:24.617Z,6.09
2022-08-10T10:20:24.605Z,6.00
2022-08-10T10:21:55.307Z,5.80
2022-08-10T10:22:24.585Z,5.50
2022-08-10T10:23:24.573Z,5.80
2022-08-10T10:24:24.564Z,5.59
2022-08-10T10:25:24.553Z,6.00
2022-08-10T10:26:24.543Z,5.59
2022-08-10T10:27:24.532Z,6.09
2022-08-10T10:28:24.521Z,5.50
2022-08-10T10:29:57.242Z,5.59
2022-08-10T10:30:26.500Z,5.50
2022-08-10T10:31:24.490Z,5.59
2022-08-10T10:32:24.504Z,5.40
2022-08-10T10:33:24.478Z,5.30
2022-08-10T10:35:24.476Z,5.40
2022-08-10T10:36:24.438Z,5.30
2022-08-10T10:38:01.356Z,5.40
2022-08-10T10:38:24.414Z,5.19
2022-08-10T10:39:24.589Z,5.30
2022-08-10T10:40:24.393Z,5.40
2022-08-10T10:41:24.381Z,5.40
2022-08-10T10:42:44.255Z,5.50
2022-08-10T10:43:26.357Z,5.50
2022-08-10T10:44:24.350Z,5.30
2022-08-10T10:45:24.338Z,5.80
2022-08-10T10:46:24.330Z,5.50
2022-08-10T10:47:24.317Z,5.40
2022-08-10T10:48:29.071Z,5.40
2022-08-10T10:49:24.297Z,5.69
2022-08-10T10:50:24.285Z,5.40
2022-08-10T10:51:24.275Z,5.50
2022-08-10T10:52:24.263Z,5.69
2022-08-10T10:53:24.254Z,5.19
2022-08-10T10:54:24.241Z,5.30
2022-08-10T10:55:24.234Z,5.09
2022-08-10T10:56:24.220Z,5.30
2022-08-10T10:57:24.212Z,5.40
2022-08-10T10:58:27.880Z,5.59
2022-08-10T10:59:54.363Z,5.40
2022-08-10T11:00:26.176Z,5.19
2022-08-10T11:01:24.262Z,5.40
2022-08-10T11:02:24.156Z,5.19
2022-08-10T11:03:24.147Z,5.40
2022-08-10T11:04:24.138Z,5.40
2022-08-10T11:05:24.133Z,5.00
2022-08-10T11:06:39.229Z,5.19
2022-08-10T11:07:29.487Z,5.19
2022-08-10T11:08:29.016Z,5.09
2022-08-10T11:10:03.711Z,5.40
2022-08-10T11:10:32.848Z,5.40
2022-08-10T11:12:01.471Z,5.59
2022-08-10T11:12:26.241Z,5.50
2022-08-10T11:14:24.342Z,6.09
2022-08-10T11:14:29.215Z,5.40
2022-08-10T11:15:24.019Z,5.59
2022-08-10T11:16:24.009Z,5.50
2022-08-10T11:17:23.999Z,5.40
2022-08-10T11:18:23.988Z,5.69
2022-08-10T11:19:23.979Z,5.69
2022-08-10T11:20:23.971Z,5.40
2022-08-10T11:21:23.959Z,5.69
2022-08-10T11:22:23.946Z,5.59
2022-08-10T11:23:23.937Z,5.69
2022-08-10T11:24:47.784Z,5.80
2022-08-10T11:25:23.917Z,5.30
2022-08-10T11:26:23.904Z,5.80
2022-08-10T11:27:23.894Z,5.59
2022-08-10T11:28:23.884Z,5.80
2022-08-10T11:29:23.875Z,5.59
2022-08-10T11:30:23.870Z,5.69
2022-08-10T11:31:23.866Z,6.00
2022-08-10T11:32:23.840Z,5.80
2022-08-10T11:33:32.596Z,5.59
2022-08-10T11:34:48.316Z,5.69
2022-08-10T11:35:25.807Z,5.80
2022-08-10T11:36:23.800Z,5.69
2022-08-10T11:37:23.787Z,5.69
2022-08-10T11:38:28.394Z,5.80
2022-08-10T11:39:23.842Z,5.69
2022-08-10T11:40:23.755Z,5.59
2022-08-10T11:42:07.739Z,5.69
2022-08-10T11:42:31.608Z,5.69
2022-08-10T11:43:23.723Z,5.40
2022-08-10T11:44:23.709Z,5.69
2022-08-10T11:45:23.699Z,5.50
2022-08-10T11:46:28.652Z,5.40
2022-08-10T11:47:23.676Z,5.59
2022-08-10T11:48:54.508Z,5.59
2022-08-10T11:49:23.654Z,5.59
2022-08-10T11:50:23.639Z,5.80
2022-08-10T11:51:23.630Z,5.59
2022-08-10T11:52:23.616Z,5.80
2022-08-10T11:53:23.605Z,6.00
2022-08-10T11:54:23.592Z,6.19
2022-08-10T11:55:23.583Z,5.80
2022-08-10T11:56:23.571Z,5.69
2022-08-10T11:57:23.807Z,5.80
2022-08-10T11:58:23.549Z,5.69
2022-08-10T11:59:23.538Z,6.00
2022-08-10T12:00:23.528Z,6.00
2022-08-10T12:01:23.518Z,5.40
2022-08-10T12:02:23.581Z,5.50
2022-08-10T12:03:23.495Z,5.59
2022-08-10T12:04:23.484Z,5.40
2022-08-10T12:05:23.872Z,5.40
2022-08-10T12:06:45.475Z,5.59
2022-08-10T12:10:02.676Z,5.40
2022-08-10T12:10:07.709Z,5.59
2022-08-10T12:10:09.931Z,6.00
2022-08-10T12:10:25.411Z,6.00
2022-08-10T12:11:24.752Z,5.80
2022-08-10T12:12:23.389Z,6.09
2022-08-10T12:13:23.379Z,5.80
2022-08-10T12:14:23.439Z,6.19
2022-08-10T12:15:23.356Z,6.09
2022-08-10T12:16:23.343Z,6.30
2022-08-10T12:17:23.333Z,5.69
2022-08-10T12:18:23.319Z,5.80
2022-08-10T12:19:23.309Z,6.09
2022-08-10T12:20:23.299Z,5.90
2022-08-10T12:21:23.287Z,5.80
2022-08-10T12:22:23.275Z,5.69
2022-08-10T12:23:23.265Z,5.80
2022-08-10T12:24:23.253Z,5.69
2022-08-10T12:25:57.025Z,5.69
2022-08-10T12:26:23.228Z,5.80
2022-08-10T12:27:23.217Z,5.59
2022-08-10T12:28:23.205Z,5.69
2022-08-10T12:29:25.368Z,5.69
2022-08-10T12:30:23.181Z,5.59
2022-08-10T12:31:23.173Z,5.40
2022-08-10T12:32:25.385Z,5.80
2022-08-10T12:33:25.147Z,5.59
2022-08-10T12:34:23.136Z,5.69
2022-08-10T12:35:26.179Z,5.69
2022-08-10T12:36:23.112Z,5.59
2022-08-10T12:37:23.102Z,5.59
2022-08-10T12:38:23.090Z,5.59
2022-08-10T12:39:23.148Z,5.59
2022-08-10T12:40:38.539Z,5.50
2022-08-10T12:41:44.704Z,5.69
2022-08-10T12:42:39.054Z,5.40
2022-08-10T12:44:05.682Z,5.59
2022-08-10T12:44:23.021Z,5.80
2022-08-10T12:45:23.012Z,5.40
2022-08-10T12:46:22.997Z,5.50
2022-08-10T12:47:22.987Z,5.40
2022-08-10T12:48:22.974Z,5.50
2022-08-10T12:49:22.964Z,5.50
2022-08-10T12:50:31.788Z,5.40
2022-08-10T12:51:22.945Z,5.69
2022-08-10T12:52:22.929Z,5.40
2022-08-10T12:53:22.920Z,5.30
2022-08-10T12:54:32.952Z,5.59
2022-08-10T12:55:22.899Z,5.50
2022-08-10T12:56:22.882Z,5.69
2022-08-10T12:57:22.873Z,5.40
2022-08-10T12:58:58.235Z,5.50
2022-08-10T12:59:22.849Z,5.69
2022-08-10T13:00:22.841Z,5.30
2022-08-10T13:01:22.981Z,5.80
2022-08-10T13:02:22.841Z,5.69
2022-08-10T13:04:20.661Z,5.30
2022-08-10T13:04:24.661Z,5.50
2022-08-10T13:05:22.779Z,5.30
2022-08-10T13:06:22.766Z,5.30
2022-08-10T13:08:03.810Z,5.09
2022-08-10T13:08:26.760Z,4.90
2022-08-10T13:09:22.787Z,4.80
2022-08-10T13:10:22.721Z,4.90
2022-08-10T13:12:39.503Z,5.00
2022-08-10T13:12:44.677Z,4.90
2022-08-10T13:13:22.688Z,5.19
2022-08-10T13:14:24.299Z,5.19
2022-08-10T13:15:47.792Z,5.50
2022-08-10T13:16:24.650Z,5.50
2022-08-10T13:17:22.642Z,5.40
2022-08-10T13:18:22.629Z,5.90
2022-08-10T13:19:22.619Z,5.69
2022-08-10T13:20:22.614Z,6.09
2022-08-10T13:21:22.596Z,6.00
2022-08-10T13:22:22.583Z,6.09
2022-08-10T13:23:22.573Z,5.69